Terminal Aerodrome Forecast
Issued by NWS Upton, NY

Home | Current Version | Previous Version | Text Only | Print | Product List | Glossary On
Versions: 1 2 3 4 5 6 7 8 9 10 11 12 13 14 15 16 17 18 19 20 21 22 23 24 25 26 27 28 29 30 31 32 33
926
FTUS41 KOKX 232035 AAB
TAFLGA
TAF AMD
KLGA 232035Z 2321/2418 23014G21KT P6SM SCT025 BKN035 BKN060
     FM232300 23012G20KT P6SM SCT025 SCT035 BKN060
      TEMPO 2323/2402 5SM TSRA BKN030CB
     FM240700 24013KT 3SM -SHRA BR SCT020 BKN050
      TEMPO 2409/2412 2SM +SHRA BR BKN015 OVC020
     FM241300 30013G20KT P6SM SCT050=

USA.gov is the U.S. government's official web portal to all federal, state and local government web resources and services.